Terminal Aerodrome Forecast
Issued by NWS Burlington, VT

Home | Current Version | Previous Version | Text Only | Print | Product List | Glossary On
Versions: 1 2 3 4 5 6 7 8 9 10 11
635
FTUS41 KBTV 232336
TAFBTV
TAF
KBTV 232336Z 2400/2424 01006KT P6SM BKN100
     FM240400 VRB03KT P6SM OVC090
     FM240700 13004KT P6SM VCSH OVC050
     FM240900 14004KT 6SM -SHRA BR OVC050
     FM241500 15006KT 4SM +SHRA BR OVC030
     FM242100 14007KT 6SM -SHRA BR OVC020=

USA.gov is the U.S. government's official web portal to all federal, state and local government web resources and services.